Scroll for more >

River gauges, storages, and weirs in the Murray–Darling Basin

Type Locationsort descending River Water level Flow Volume Release Water temp Salinity Rainfall
River Gauge Albury (Union Bridge) Murray 1.93 m 27/02/2017 5:45 Not measured Not measured Not measured 19.1°C 27/02/2017 5:45 61.2 μS/cm 27/02/2017 5:45 Not measured Full data
River Gauge Balranald Murrumbidgee 1.73 m 27/02/2017 5:45 1315 ML/Day 27/02/2017 5:45 Not measured Not measured 23.6°C 27/02/2017 5:45 145.4 μS/cm 27/02/2017 5:45 Not measured Full data
River Gauge Bandiana Kiewa 0.9 m 27/02/2017 5:45 405 ML/Day 27/02/2017 5:45 Not measured Not measured 21.6°C 27/02/2017 5:45 46.9 μS/cm 27/02/2017 5:45 Not measured Full data
River Gauge Biggara Murray 0.33 m 27/02/2017 6:15 307 ML/Day 27/02/2017 6:15 Not measured Not measured 18.6°C 27/02/2017 6:15 54.8 μS/cm 27/02/2017 6:15 0.0 mm 26/02/2017 9:00 Full data
River Gauge Bringenbrong Bridge Murray 1.44 m 27/02/2017 6:15 3335 ML/Day 27/02/2017 6:15 Not measured Not measured Not measured Not measured Not measured Full data
River Gauge Burtundy Darling 2.29 m 27/02/2017 6:15 3428 ML/Day 27/02/2017 6:15 Not measured Not measured 24.1°C 27/02/2017 6:15 475.2 μS/cm 27/02/2017 6:15 Not measured Full data
River Gauge Colemans Mitta 0.99 m 27/02/2017 5:45 291 ML/Day 27/02/2017 5:45 Not measured Not measured 14.2°C 27/02/2017 5:45 40.3 μS/cm 27/02/2017 5:45 Not measured Full data
River Gauge Colignan Murray 1.95 m 27/02/2017 5:30 6736 ML/Day 27/02/2017 5:30 Not measured Not measured 24.3°C 27/02/2017 5:30 138.9 μS/cm 27/02/2017 5:30 Not measured Full data
River Gauge Corowa Murray 3 m 27/02/2017 6:15 14172 ML/Day 27/02/2017 6:15 Not measured Not measured 21.4°C 27/02/2017 6:15 66.1 μS/cm 27/02/2017 6:15 Not measured Full data
Storage Dartmouth Dam Mitta 471.92 m 27/02/2017 5:45 Not measured 2999 GL 27/02/2017 5:45 Not measured Not measured Not measured Not measured Full data
River Gauge Doctors Point Murray 2.95 m 27/02/2017 5:45 14613 ML/Day 27/02/2017 5:45 Not measured Not measured 19.0°C 27/02/2017 5:45 53.2 μS/cm 27/02/2017 5:45 Not measured Full data
River Gauge Echuca Wharf Murray 86.93 m 25/02/2017 7:45 Not measured Not measured Not measured Not measured Not measured Not measured Full data
River Gauge Edward Escape Wakool 0.68 m 27/02/2017 5:45 566 ML/Day 27/02/2017 5:45 Not measured Not measured 22.8°C 27/02/2017 5:45 58.6 μS/cm 27/02/2017 5:45 Not measured Full data
River Gauge Edward River Offtake Murray 2.44 m 27/02/2017 6:30 1625 ML/Day 27/02/2017 6:30 Not measured Not measured 23.2°C 27/02/2017 5:45 50.3 μS/cm 27/02/2017 5:45 Not measured Full data
Weirs Euston Weir Downstream Murray 43.22 m 27/02/2017 5:45 6896 ML/Day 27/02/2017 5:45 Not measured Not measured 22.9°C 27/02/2017 5:45 158.6 μS/cm 27/02/2017 5:45 Not measured Full data
Weirs Euston Weir Upstream Murray 47.48 m 24/02/2017 7:45 Not measured 35 GL 24/02/2017 7:45 Not measured Not measured Not measured 0.0 mm 23/02/2017 9:00 Full data
River Gauge Flow to South Australia Murray Not measured Not measured Not measured 7959.9 ML/d24/02/2017 7:45 Not measured Not measured Not measured Full data
River Gauge Frenchman Creek Murray 27.3 m 24/02/2017 7:45 Not measured Not measured 1696.0 ML/d24/02/2017 7:45 Not measured Not measured Not measured Full data
River Gauge Gulpa Creek Offtake Murray 2.5 m 27/02/2017 5:45 339 ML/Day 27/02/2017 5:45 Not measured Not measured Not measured Not measured Not measured Full data
River Gauge Hinnomunjie Mitta 0.55 m 27/02/2017 5:15 228 ML/Day 27/02/2017 5:15 Not measured Not measured 18.3°C 27/02/2017 5:15 40.5 μS/cm 27/02/2017 5:15 0.0 mm 26/02/2017 9:00 Full data
Storage Hume Dam Murray 188.31 m 27/02/2017 6:15 Not measured 2316 GL 27/02/2017 6:15 13304.0 ML/d26/02/2017 8:00 Not measured Not measured 0.0 mm 26/02/2017 9:00 Full data
River Gauge Jingellic Murray 1.52 m 27/02/2017 5:45 2941 ML/Day 27/02/2017 5:45 Not measured Not measured 18.8°C 27/02/2017 5:45 58.3 μS/cm 27/02/2017 5:45 0.0 mm 26/02/2017 9:00 Full data
River Gauge Kerang Loddon 0.34 m 27/02/2017 5:45 143 ML/Day 27/02/2017 5:45 Not measured Not measured 21.3°C 27/02/2017 5:45 125.9 μS/cm 27/02/2017 5:45 Not measured Full data
River Gauge Lake Albert Murray 0.68 m 27/02/2017 5:45 Not measured 260 GL 27/02/2017 5:45 Not measured Not measured Not measured Not measured Full data
River Gauge Lake Alexandrina Murray 0.73 m 27/02/2017 5:45 Not measured 1599 GL 27/02/2017 5:45 Not measured Not measured Not measured Not measured Full data
Storage Lake Victoria Murray 25.05 m 27/02/2017 4:45 Not measured 453 GL 27/02/2017 4:45 Not measured 20.7°C 27/02/2017 5:45 190.4 μS/cm 27/02/2017 4:45 Not measured Full data
Weirs Lock 1 Downstream Murray 0.82 m 27/02/2017 4:45 Not measured Not measured 5236.5 ML/d24/02/2017 7:45 Not measured Not measured Not measured Full data
Weirs Lock 1 Upstream Murray 3.11 m 27/02/2017 4:45 Not measured Not measured Not measured 22.7°C 27/02/2017 4:45 469.7 μS/cm 27/02/2017 4:45 Not measured Full data
Weirs Lock 2 Downstream Murray 3.36 m 27/02/2017 4:45 Not measured Not measured Not measured Not measured Not measured Not measured Full data
Weirs Lock 2 Upstream Murray 6.1 m 27/02/2017 4:45 Not measured Not measured Not measured 23.1°C 27/02/2017 4:45 486.9 μS/cm 27/02/2017 4:45 Not measured Full data
Weirs Lock 3 Downstream Murray 6.36 m 27/02/2017 4:45 Not measured Not measured Not measured Not measured Not measured Not measured Full data
Weirs Lock 3 Upstream Murray 9.81 m 27/02/2017 4:45 Not measured Not measured Not measured Not measured Not measured Not measured Full data
Weirs Lock 4 Downstream Murray 10.67 m 27/02/2017 4:45 Not measured Not measured Not measured Not measured Not measured Not measured Full data
Weirs Lock 4 Upstream Murray 13.22 m 27/02/2017 5:45 Not measured Not measured Not measured Not measured Not measured Not measured Full data
Weirs Lock 5 Downstream Murray 13.45 m 27/02/2017 4:45 Not measured Not measured Not measured Not measured Not measured Not measured Full data
Weirs Lock 5 Upstream Murray 16.31 m 27/02/2017 3:15 Not measured Not measured Not measured 23.2°C 27/02/2017 4:45 371.2 μS/cm 27/02/2017 4:45 Not measured Full data
Weirs Lock 6 Downstream Murray 16.46 m 27/02/2017 4:45 Not measured Not measured Not measured Not measured Not measured Not measured Full data
Weirs Lock 6 Upstream Murray 19.27 m 27/02/2017 4:45 Not measured Not measured Not measured 23.1°C 27/02/2017 4:45 325.7 μS/cm 27/02/2017 4:45 Not measured Full data
Weirs Lock 7 Downstream Murray 20.54 m 27/02/2017 4:45 Not measured Not measured Not measured Not measured Not measured Not measured Full data
Weirs Lock 7 Upstream Murray 21.84 m 27/02/2017 4:45 Not measured Not measured Not measured 23.7°C 20/02/2017 0:00 313.0 μS/cm 24/02/2017 7:45 Not measured Full data
Weirs Lock 8 Upstream Murray 24.1 m 24/02/2017 7:45 Not measured Not measured Not measured 24.3°C 19/02/2017 18:45 327.5 μS/cm 19/02/2017 18:45 Not measured Full data
Weirs Lock 9 Downstream Murray 24.27 m 27/02/2017 4:45 Not measured Not measured Not measured Not measured Not measured Not measured Full data
Weirs Lock 9 Upstream Murray 27.32 m 26/02/2017 18:45 Not measured Not measured Not measured 23.6°C 27/02/2017 4:45 309.3 μS/cm 27/02/2017 4:45 Not measured Full data
River Gauge McCoy Bridge Goulburn 1.62 m 27/02/2017 5:45 1174 ML/Day 27/02/2017 5:45 Not measured Not measured 22.8°C 27/02/2017 5:45 62.0 μS/cm 27/02/2017 5:45 Not measured Full data
Storage Menindee Lakes Darling Not measured Not measured 1047 GL 27/02/2017 7:00 Not measured Not measured Not measured Not measured Full data
Weirs Mildura Weir downstream Murray 30.74 m 27/02/2017 5:30 Not measured Not measured Not measured 23.6°C 27/02/2017 5:30 184.7 μS/cm 27/02/2017 5:30 Not measured Full data
River Gauge Morgan Downstream Murray Not measured Not measured Not measured 5658.0 ML/d27/02/2017 4:45 Not measured Not measured Not measured Full data
River Gauge Mulwala Canal Murray Not measured Not measured Not measured 3924.5 ML/d24/02/2017 7:45 Not measured Not measured Not measured Full data
River Gauge Mundoo Barrage Murray 0.61 m 24/02/2017 7:45 Not measured Not measured Not measured Not measured Not measured Not measured Full data
River Gauge Murray Bridge Murray 0.71 m 27/02/2017 4:45 Not measured Not measured Not measured 22.5°C 27/02/2017 4:45 333.6 μS/cm 27/02/2017 4:45 Not measured Full data
River Gauge Peechelba Ovens 126.56 m 27/02/2017 5:30 637 ML/Day 27/02/2017 5:30 Not measured Not measured 22.6°C 27/02/2017 5:30 70.9 μS/cm 27/02/2017 5:30 Not measured Full data
River Gauge Pinegrove Murray 1.14 m 27/02/2017 6:15 215 ML/Day 27/02/2017 6:15 Not measured Not measured 20.6°C 27/02/2017 6:15 80.4 μS/cm 27/02/2017 6:15 0.0 mm 26/02/2017 9:00 Full data
River Gauge Rochester Campaspe 1.74 m 27/02/2017 5:45 100 ML/Day 27/02/2017 5:45 Not measured Not measured 17.7°C 27/02/2017 5:45 441.5 μS/cm 27/02/2017 5:45 0.0 mm 26/02/2017 9:00 Full data
River Gauge Rufus River Murray 20.51 m 24/02/2017 7:45 Not measured Not measured 433.0 ML/d24/02/2017 7:45 Not measured 220.9 μS/cm 27/02/2017 2:45 Not measured Full data
Weirs Steven's Weir Downstream Wakool 0.96 m 27/02/2017 5:45 634 ML/Day 27/02/2017 5:45 Not measured Not measured 23.0°C 27/02/2017 5:45 69.7 μS/cm 27/02/2017 5:45 0.0 mm 23/02/2017 9:00 Full data
Weirs Steven's Weir Upstream Wakool 4.74 m 27/02/2017 6:30 Not measured Not measured Not measured Not measured Not measured Not measured Full data
River Gauge Stoney Crossing Murray 1.53 m 27/02/2017 1:45 680 ML/Day 27/02/2017 1:45 Not measured 665.4 ML/d26/02/2017 7:45 23.4°C 27/02/2017 1:45 302.9 μS/cm 27/02/2017 1:45 Not measured Full data
River Gauge Swan Hill Murray 1.18 m 27/02/2017 5:15 5908 ML/Day 27/02/2017 5:15 Not measured Not measured 23.3°C 27/02/2017 5:15 80.3 μS/cm 27/02/2017 5:15 Not measured Full data
River Gauge Tallandoon Mitta 1.41 m 27/02/2017 5:30 614 ML/Day 27/02/2017 5:30 Not measured Not measured 20.5°C 27/02/2017 5:30 66.4 μS/cm 27/02/2017 5:30 Not measured Full data
River Gauge Tauwitchere Barrage Murray 0.72 m 27/02/2017 4:45 Not measured Not measured Not measured Not measured Not measured Not measured Full data
River Gauge Tocumwal Murray 2.31 m 27/02/2017 5:15 8697 ML/Day 27/02/2017 5:15 Not measured Not measured 22.3°C 27/02/2017 5:15 74.8 μS/cm 27/02/2017 5:15 Not measured Full data
River Gauge Torrumbarry Headworks Murray 85.2 m 27/02/2017 6:00 Not measured Not measured 2446.2 ML/d27/02/2017 5:45 Not measured Not measured Not measured Full data
Weirs Torrumbarry Weir Downstream Murray 2.03 m 27/02/2017 5:45 6065 ML/Day 27/02/2017 5:45 Not measured Not measured 23.0°C 27/02/2017 5:45 69.4 μS/cm 27/02/2017 5:45 Not measured Full data
Weirs Torrumbarry Weir Upstream Murray 86.05 m 26/02/2017 7:45 Not measured 37 GL 26/02/2017 7:45 Not measured 22.7°C 26/02/2017 7:45 70.0 μS/cm 26/02/2017 7:45 0.0 mm 25/02/2017 9:00 Full data
River Gauge Wakool Canal Wakool 0.7 m 27/02/2017 5:45 Not measured Not measured 911.1 ML/d26/02/2017 8:45 Not measured Not measured Not measured Full data
River Gauge Wakool Junction Murray 2.73 m 27/02/2017 5:45 6933 ML/Day 27/02/2017 5:45 Not measured Not measured 23.3°C 27/02/2017 5:45 114.6 μS/cm 27/02/2017 5:45 Not measured Full data
River Gauge Weir 32 Upstream Darling 2.15 m 27/02/2017 5:45 3039 ML/Day 27/02/2017 5:45 Not measured Not measured 24.3°C 27/02/2017 5:45 483.8 μS/cm 27/02/2017 5:45 Not measured Full data
Weirs Wentworth Weir Murray 27.73 m 27/02/2017 5:45 Not measured Not measured 9108.8 ML/d24/02/2017 7:45 Not measured 191.9 μS/cm 27/01/2017 7:45 0.0 mm 23/02/2017 9:00 Full data
River Gauge Wilcania Darling 0.23 m 27/02/2017 5:45 20 ML/Day 27/02/2017 5:45 Not measured Not measured 26.4°C 27/02/2017 5:45 573.2 μS/cm 27/02/2017 5:45 Not measured Full data
River Gauge Yarrawonga Main Channel Murray 123.9 m 27/02/2017 5:45 Not measured Not measured 1699.0 ML/d26/02/2017 7:45 Not measured Not measured Not measured Full data
Weirs Yarrawonga Weir Downstream Murray 1.54 m 27/02/2017 5:45 9432 ML/Day 27/02/2017 5:45 Not measured Not measured 22.6°C 27/02/2017 5:45 60.3 μS/cm 27/02/2017 5:45 Not measured Full data
Weirs Yarrawonga Weir Upstream Murray 124.76 m 27/02/2017 5:45 Not measured Not measured Not measured Not measured Not measured 0.0 mm 26/02/2017 9:00 Full data